Terminal Aerodrome Forecast
Issued by NWS

Home | Current Version | Previous Version | Text Only | Print | Product List | Glossary On
Versions: 1 2 3 4 5 6 7 8 9 10 11 12 13 14 15 16
000
FTUS45 KBYZ 241139
TAFLVM
TAF
KLVM 241139Z 2412/2512 26008KT P6SM SCT080
     FM241400 24007KT P6SM VCSH SCT050 BKN100
     FM241900 07009KT 6SM -SHRA SCT050 BKN100
     FM242200 06007KT 5SM -RA SCT020 BKN050
     FM250900 31009KT 5SM -RA SCT020 BKN050=

USA.gov is the U.S. government's official web portal to all federal, state and local government web resources and services.